sensor_id;sensor_type;location;lat;lon;timestamp;noise_LAeq;noise_LA_min;noise_LA_max;noise_LA01;noise_LA95
18377;Laerm;9315;52.624;13.544;2023-12-14T00:01:19;35.89;32.30;48.13;;
18377;Laerm;9315;52.624;13.544;2023-12-14T00:03:47;66.70;34.35;84.72;;
18377;Laerm;9315;52.624;13.544;2023-12-14T00:06:14;55.22;33.94;71.10;;
18377;Laerm;9315;52.624;13.544;2023-12-14T00:08:42;58.44;32.95;77.43;;
18377;Laerm;9315;52.624;13.544;2023-12-14T00:11:11;62.56;33.64;76.72;;
18377;Laerm;9315;52.624;13.544;2023-12-14T00:13:39;47.05;33.07;60.42;;
18377;Laerm;9315;52.624;13.544;2023-12-14T00:16:07;61.11;34.02;76.50;;
18377;Laerm;9315;52.624;13.544;2023-12-14T00:18:36;57.33;32.89;72.09;;
18377;Laerm;9315;52.624;13.544;2023-12-14T00:21:05;56.48;32.41;75.09;;
18377;Laerm;9315;52.624;13.544;2023-12-14T00:23:34;37.86;32.65;46.99;;
18377;Laerm;9315;52.624;13.544;2023-12-14T00:26:01;35.23;32.26;43.34;;
18377;Laerm;9315;52.624;13.544;2023-12-14T00:28:29;33.69;32.44;39.32;;
18377;Laerm;9315;52.624;13.544;2023-12-14T00:31:00;69.83;32.87;83.98;;
18377;Laerm;9315;52.624;13.544;2023-12-14T00:33:28;60.04;32.89;76.81;;
18377;Laerm;9315;52.624;13.544;2023-12-14T00:35:55;33.21;32.03;39.43;;
18377;Laerm;9315;52.624;13.544;2023-12-14T00:38:22;34.33;32.26;42.04;;
18377;Laerm;9315;52.624;13.544;2023-12-14T00:40:50;59.66;32.33;75.88;;
18377;Laerm;9315;52.624;13.544;2023-12-14T00:43:17;60.43;32.85;78.12;;
18377;Laerm;9315;52.624;13.544;2023-12-14T00:45:45;55.98;32.50;71.29;;
18377;Laerm;9315;52.624;13.544;2023-12-14T00:48:13;35.15;32.04;48.61;;
18377;Laerm;9315;52.624;13.544;2023-12-14T00:50:40;66.80;32.57;82.08;;
18377;Laerm;9315;52.624;13.544;2023-12-14T00:53:08;61.55;34.36;77.13;;
18377;Laerm;9315;52.624;13.544;2023-12-14T00:55:35;41.96;33.07;58.90;;
18377;Laerm;9315;52.624;13.544;2023-12-14T00:58:03;55.06;33.83;71.13;;
18377;Laerm;9315;52.624;13.544;2023-12-14T01:00:30;35.56;33.31;45.19;;
18377;Laerm;9315;52.624;13.544;2023-12-14T01:02:58;34.98;33.10;45.53;;
18377;Laerm;9315;52.624;13.544;2023-12-14T01:05:25;57.42;32.87;72.62;;
18377;Laerm;9315;52.624;13.544;2023-12-14T01:07:53;64.69;33.78;79.69;;
18377;Laerm;9315;52.624;13.544;2023-12-14T01:10:20;36.07;33.39;49.82;;
18377;Laerm;9315;52.624;13.544;2023-12-14T01:12:48;58.16;32.82;75.42;;
18377;Laerm;9315;52.624;13.544;2023-12-14T01:15:15;57.26;33.47;76.20;;
18377;Laerm;9315;52.624;13.544;2023-12-14T01:17:43;40.80;34.01;58.73;;
18377;Laerm;9315;52.624;13.544;2023-12-14T01:20:11;61.26;34.29;75.33;;
18377;Laerm;9315;52.624;13.544;2023-12-14T01:22:38;61.28;32.72;78.70;;
18377;Laerm;9315;52.624;13.544;2023-12-14T01:25:06;57.97;33.13;76.34;;
18377;Laerm;9315;52.624;13.544;2023-12-14T01:27:34;63.44;33.41;80.67;;
18377;Laerm;9315;52.624;13.544;2023-12-14T01:30:01;35.67;33.10;40.80;;
18377;Laerm;9315;52.624;13.544;2023-12-14T01:32:29;35.22;33.17;42.17;;
18377;Laerm;9315;52.624;13.544;2023-12-14T01:34:56;58.75;33.80;77.95;;
18377;Laerm;9315;52.624;13.544;2023-12-14T01:37:24;38.27;33.72;47.56;;
18377;Laerm;9315;52.624;13.544;2023-12-14T01:39:51;60.11;34.15;76.40;;
18377;Laerm;9315;52.624;13.544;2023-12-14T01:42:18;36.43;33.50;50.56;;
18377;Laerm;9315;52.624;13.544;2023-12-14T01:44:46;63.94;33.28;81.01;;
18377;Laerm;9315;52.624;13.544;2023-12-14T01:47:13;35.18;32.86;42.26;;
18377;Laerm;9315;52.624;13.544;2023-12-14T01:49:41;36.28;33.45;42.11;;
18377;Laerm;9315;52.624;13.544;2023-12-14T01:52:09;37.05;34.14;43.60;;
18377;Laerm;9315;52.624;13.544;2023-12-14T01:54:36;67.17;36.57;81.74;;
18377;Laerm;9315;52.624;13.544;2023-12-14T01:57:04;59.57;32.87;79.24;;
18377;Laerm;9315;52.624;13.544;2023-12-14T01:59:32;58.40;33.14;76.99;;
18377;Laerm;9315;52.624;13.544;2023-12-14T02:01:59;59.16;34.15;73.64;;
18377;Laerm;9315;52.624;13.544;2023-12-14T02:04:28;53.81;33.79;71.79;;
18377;Laerm;9315;52.624;13.544;2023-12-14T02:06:56;58.70;35.68;76.46;;
18377;Laerm;9315;52.624;13.544;2023-12-14T02:09:23;59.24;34.43;77.97;;
18377;Laerm;9315;52.624;13.544;2023-12-14T02:11:52;37.81;34.32;45.73;;
18377;Laerm;9315;52.624;13.544;2023-12-14T02:14:22;57.99;34.81;73.21;;
18377;Laerm;9315;52.624;13.544;2023-12-14T02:16:50;67.77;34.64;82.72;;
18377;Laerm;9315;52.624;13.544;2023-12-14T02:19:18;63.35;37.00;78.12;;
18377;Laerm;9315;52.624;13.544;2023-12-14T02:21:45;45.04;33.25;60.82;;
18377;Laerm;9315;52.624;13.544;2023-12-14T02:24:13;35.23;32.98;40.00;;
18377;Laerm;9315;52.624;13.544;2023-12-14T02:26:40;63.83;34.01;80.60;;
18377;Laerm;9315;52.624;13.544;2023-12-14T02:29:07;35.98;32.84;46.51;;
18377;Laerm;9315;52.624;13.544;2023-12-14T02:31:35;35.96;32.92;47.66;;
18377;Laerm;9315;52.624;13.544;2023-12-14T02:34:02;63.62;33.62;84.27;;
18377;Laerm;9315;52.624;13.544;2023-12-14T02:36:30;63.85;34.35;78.62;;
18377;Laerm;9315;52.624;13.544;2023-12-14T02:38:57;56.62;35.45;72.80;;
18377;Laerm;9315;52.624;13.544;2023-12-14T02:41:25;66.24;35.26;81.65;;
18377;Laerm;9315;52.624;13.544;2023-12-14T02:43:52;55.66;34.60;73.17;;
18377;Laerm;9315;52.624;13.544;2023-12-14T02:46:20;62.36;35.48;80.15;;
18377;Laerm;9315;52.624;13.544;2023-12-14T02:48:47;54.69;34.58;73.04;;
18377;Laerm;9315;52.624;13.544;2023-12-14T02:51:14;61.45;34.70;78.36;;
18377;Laerm;9315;52.624;13.544;2023-12-14T02:53:42;59.91;33.54;76.71;;
18377;Laerm;9315;52.624;13.544;2023-12-14T02:56:10;63.17;36.94;74.14;;
18377;Laerm;9315;52.624;13.544;2023-12-14T02:58:38;56.97;35.95;75.85;;
18377;Laerm;9315;52.624;13.544;2023-12-14T03:01:06;58.08;34.71;73.21;;
18377;Laerm;9315;52.624;13.544;2023-12-14T03:03:34;66.89;35.74;80.73;;
18377;Laerm;9315;52.624;13.544;2023-12-14T03:06:03;66.61;34.87;79.47;;
18377;Laerm;9315;52.624;13.544;2023-12-14T03:08:30;62.89;35.02;78.55;;
18377;Laerm;9315;52.624;13.544;2023-12-14T03:10:57;66.16;36.99;79.49;;
18377;Laerm;9315;52.624;13.544;2023-12-14T03:13:25;66.36;36.21;82.14;;
18377;Laerm;9315;52.624;13.544;2023-12-14T03:15:53;57.21;34.31;73.62;;
18377;Laerm;9315;52.624;13.544;2023-12-14T03:18:20;67.00;36.40;76.53;;
18377;Laerm;9315;52.624;13.544;2023-12-14T03:20:48;65.68;37.69;78.68;;
18377;Laerm;9315;52.624;13.544;2023-12-14T03:23:15;62.48;35.84;75.80;;
18377;Laerm;9315;52.624;13.544;2023-12-14T03:25:43;63.64;36.33;74.98;;
18377;Laerm;9315;52.624;13.544;2023-12-14T03:28:10;65.18;37.11;75.17;;
18377;Laerm;9315;52.624;13.544;2023-12-14T03:30:38;63.81;37.33;79.83;;
18377;Laerm;9315;52.624;13.544;2023-12-14T03:33:05;64.51;35.70;80.58;;
18377;Laerm;9315;52.624;13.544;2023-12-14T03:35:35;67.33;41.48;76.82;;
18377;Laerm;9315;52.624;13.544;2023-12-14T03:38:03;67.60;39.20;82.84;;
18377;Laerm;9315;52.624;13.544;2023-12-14T03:40:30;67.93;36.69;78.56;;
18377;Laerm;9315;52.624;13.544;2023-12-14T03:42:58;64.67;37.13;79.89;;
18377;Laerm;9315;52.624;13.544;2023-12-14T03:45:25;60.69;36.59;78.89;;
18377;Laerm;9315;52.624;13.544;2023-12-14T03:47:52;69.07;37.52;79.99;;
18377;Laerm;9315;52.624;13.544;2023-12-14T03:50:20;63.86;37.33;77.29;;
18377;Laerm;9315;52.624;13.544;2023-12-14T03:52:47;65.80;38.73;77.60;;
18377;Laerm;9315;52.624;13.544;2023-12-14T03:55:15;66.30;38.99;79.30;;
18377;Laerm;9315;52.624;13.544;2023-12-14T03:57:42;66.25;39.01;78.99;;
18377;Laerm;9315;52.624;13.544;2023-12-14T04:00:12;67.60;39.20;81.66;;
18377;Laerm;9315;52.624;13.544;2023-12-14T04:02:40;66.88;39.38;79.42;;
18377;Laerm;9315;52.624;13.544;2023-12-14T04:05:10;68.82;39.39;82.62;;
18377;Laerm;9315;52.624;13.544;2023-12-14T04:07:39;68.83;39.50;77.45;;
18377;Laerm;9315;52.624;13.544;2023-12-14T04:10:11;65.76;37.94;77.65;;
18377;Laerm;9315;52.624;13.544;2023-12-14T04:12:40;67.32;38.74;77.26;;
18377;Laerm;9315;52.624;13.544;2023-12-14T04:15:09;71.15;40.77;83.07;;
18377;Laerm;9315;52.624;13.544;2023-12-14T04:17:37;70.06;40.84;81.18;;
18377;Laerm;9315;52.624;13.544;2023-12-14T04:20:06;70.62;49.77;79.14;;
18377;Laerm;9315;52.624;13.544;2023-12-14T04:22:34;71.30;44.97;83.01;;
18377;Laerm;9315;52.624;13.544;2023-12-14T04:25:02;67.25;42.41;79.75;;
18377;Laerm;9315;52.624;13.544;2023-12-14T04:27:30;70.87;41.58;81.36;;
18377;Laerm;9315;52.624;13.544;2023-12-14T04:29:57;70.49;42.41;82.11;;
18377;Laerm;9315;52.624;13.544;2023-12-14T04:32:25;69.94;46.36;79.26;;
18377;Laerm;9315;52.624;13.544;2023-12-14T04:34:53;70.62;47.28;79.68;;
18377;Laerm;9315;52.624;13.544;2023-12-14T04:37:20;68.10;40.07;76.68;;
18377;Laerm;9315;52.624;13.544;2023-12-14T04:39:47;68.84;43.61;77.27;;
18377;Laerm;9315;52.624;13.544;2023-12-14T04:42:15;71.48;46.10;79.35;;
18377;Laerm;9315;52.624;13.544;2023-12-14T04:44:42;68.74;47.71;77.25;;
18377;Laerm;9315;52.624;13.544;2023-12-14T04:47:10;69.48;44.54;77.25;;
18377;Laerm;9315;52.624;13.544;2023-12-14T04:49:37;69.69;45.56;81.25;;
18377;Laerm;9315;52.624;13.544;2023-12-14T04:52:05;70.20;46.72;80.73;;
18377;Laerm;9315;52.624;13.544;2023-12-14T04:54:33;69.14;42.73;80.74;;
18377;Laerm;9315;52.624;13.544;2023-12-14T04:57:03;69.47;43.58;78.63;;
18377;Laerm;9315;52.624;13.544;2023-12-14T04:59:30;70.14;46.98;80.63;;
18377;Laerm;9315;52.624;13.544;2023-12-14T05:01:58;70.91;43.25;82.73;;
18377;Laerm;9315;52.624;13.544;2023-12-14T05:04:25;72.23;46.71;86.25;;
18377;Laerm;9315;52.624;13.544;2023-12-14T05:06:52;71.81;45.27;82.50;;
18377;Laerm;9315;52.624;13.544;2023-12-14T05:09:20;68.76;41.68;80.60;;
18377;Laerm;9315;52.624;13.544;2023-12-14T05:11:47;70.82;44.67;80.55;;
18377;Laerm;9315;52.624;13.544;2023-12-14T05:14:15;70.03;42.04;78.82;;
18377;Laerm;9315;52.624;13.544;2023-12-14T05:16:44;70.15;45.25;79.42;;
18377;Laerm;9315;52.624;13.544;2023-12-14T05:19:11;72.35;51.22;82.47;;
18377;Laerm;9315;52.624;13.544;2023-12-14T05:21:40;72.16;47.21;84.26;;
18377;Laerm;9315;52.624;13.544;2023-12-14T05:24:07;72.88;49.84;80.46;;
18377;Laerm;9315;52.624;13.544;2023-12-14T05:26:35;70.16;43.98;80.60;;
18377;Laerm;9315;52.624;13.544;2023-12-14T05:29:02;71.51;48.71;81.12;;
18377;Laerm;9315;52.624;13.544;2023-12-14T05:31:32;71.77;42.80;81.40;;
18377;Laerm;9315;52.624;13.544;2023-12-14T05:34:01;73.15;52.64;82.86;;
18377;Laerm;9315;52.624;13.544;2023-12-14T05:36:29;69.44;42.45;79.26;;
18377;Laerm;9315;52.624;13.544;2023-12-14T05:38:57;72.63;47.08;80.36;;
18377;Laerm;9315;52.624;13.544;2023-12-14T05:41:25;70.78;45.85;80.39;;
18377;Laerm;9315;52.624;13.544;2023-12-14T05:43:52;72.23;46.51;82.09;;
18377;Laerm;9315;52.624;13.544;2023-12-14T05:46:24;72.54;50.30;91.16;;
18377;Laerm;9315;52.624;13.544;2023-12-14T05:48:52;71.83;46.91;81.77;;
18377;Laerm;9315;52.624;13.544;2023-12-14T05:51:33;73.47;44.59;84.94;;
18377;Laerm;9315;52.624;13.544;2023-12-14T05:54:07;73.58;52.62;80.45;;
18377;Laerm;9315;52.624;13.544;2023-12-14T05:56:34;72.36;44.97;81.15;;
18377;Laerm;9315;52.624;13.544;2023-12-14T05:59:05;71.58;48.46;81.32;;
18377;Laerm;9315;52.624;13.544;2023-12-14T06:01:33;73.53;49.65;83.53;;
18377;Laerm;9315;52.624;13.544;2023-12-14T06:04:00;73.39;49.65;83.91;;
18377;Laerm;9315;52.624;13.544;2023-12-14T06:06:28;73.41;47.86;81.12;;
18377;Laerm;9315;52.624;13.544;2023-12-14T06:08:55;72.17;45.47;82.93;;
18377;Laerm;9315;52.624;13.544;2023-12-14T06:11:23;73.91;45.41;83.86;;
18377;Laerm;9315;52.624;13.544;2023-12-14T06:13:54;75.73;53.36;85.43;;
18377;Laerm;9315;52.624;13.544;2023-12-14T06:16:21;72.94;48.31;83.10;;
18377;Laerm;9315;52.624;13.544;2023-12-14T06:18:48;74.30;49.54;82.43;;
18377;Laerm;9315;52.624;13.544;2023-12-14T06:21:16;72.54;50.13;80.58;;
18377;Laerm;9315;52.624;13.544;2023-12-14T06:23:46;75.09;47.29;82.48;;
18377;Laerm;9315;52.624;13.544;2023-12-14T06:26:17;73.49;46.21;82.52;;
18377;Laerm;9315;52.624;13.544;2023-12-14T06:28:45;74.55;54.35;84.08;;
18377;Laerm;9315;52.624;13.544;2023-12-14T06:31:14;72.97;47.28;83.44;;
18377;Laerm;9315;52.624;13.544;2023-12-14T06:33:42;71.94;47.95;81.00;;
18377;Laerm;9315;52.624;13.544;2023-12-14T06:36:10;72.60;45.30;84.92;;
18377;Laerm;9315;52.624;13.544;2023-12-14T06:38:40;72.61;45.59;82.32;;
18377;Laerm;9315;52.624;13.544;2023-12-14T06:41:08;72.34;47.51;82.91;;
18377;Laerm;9315;52.624;13.544;2023-12-14T06:43:39;73.51;50.49;84.15;;
18377;Laerm;9315;52.624;13.544;2023-12-14T06:46:08;71.62;50.48;79.09;;
18377;Laerm;9315;52.624;13.544;2023-12-14T06:48:35;72.64;49.19;80.66;;
18377;Laerm;9315;52.624;13.544;2023-12-14T06:51:03;72.92;51.48;82.54;;
18377;Laerm;9315;52.624;13.544;2023-12-14T06:53:30;72.29;42.63;81.44;;
18377;Laerm;9315;52.624;13.544;2023-12-14T06:55:58;73.68;49.08;82.96;;
18377;Laerm;9315;52.624;13.544;2023-12-14T06:58:26;73.47;47.01;83.94;;
18377;Laerm;9315;52.624;13.544;2023-12-14T07:00:53;73.41;45.38;85.92;;
18377;Laerm;9315;52.624;13.544;2023-12-14T07:03:21;73.26;45.94;83.10;;
18377;Laerm;9315;52.624;13.544;2023-12-14T07:05:48;73.48;50.57;80.83;;
18377;Laerm;9315;52.624;13.544;2023-12-14T07:08:16;71.12;46.97;79.46;;
18377;Laerm;9315;52.624;13.544;2023-12-14T07:10:44;72.64;49.15;80.74;;
18377;Laerm;9315;52.624;13.544;2023-12-14T07:13:12;72.31;46.75;83.66;;
18377;Laerm;9315;52.624;13.544;2023-12-14T07:15:39;73.78;49.60;82.82;;
18377;Laerm;9315;52.624;13.544;2023-12-14T07:18:07;72.57;44.68;83.67;;
18377;Laerm;9315;52.624;13.544;2023-12-14T07:20:34;70.61;46.82;78.57;;
18377;Laerm;9315;52.624;13.544;2023-12-14T07:23:02;72.11;48.45;82.57;;
18377;Laerm;9315;52.624;13.544;2023-12-14T07:25:30;72.96;47.16;80.49;;
18377;Laerm;9315;52.624;13.544;2023-12-14T07:27:57;73.75;57.93;81.79;;
18377;Laerm;9315;52.624;13.544;2023-12-14T07:30:25;73.55;61.53;85.88;;
18377;Laerm;9315;52.624;13.544;2023-12-14T07:32:52;71.11;50.85;82.51;;
18377;Laerm;9315;52.624;13.544;2023-12-14T07:35:22;72.69;46.46;84.60;;
18377;Laerm;9315;52.624;13.544;2023-12-14T07:37:50;72.40;54.48;83.32;;
18377;Laerm;9315;52.624;13.544;2023-12-14T07:40:18;71.76;55.73;79.91;;
18377;Laerm;9315;52.624;13.544;2023-12-14T07:42:46;70.66;45.25;78.54;;
18377;Laerm;9315;52.624;13.544;2023-12-14T07:45:17;71.92;45.13;79.97;;
18377;Laerm;9315;52.624;13.544;2023-12-14T07:47:44;71.37;49.09;79.98;;
18377;Laerm;9315;52.624;13.544;2023-12-14T07:50:14;70.69;50.45;81.43;;
18377;Laerm;9315;52.624;13.544;2023-12-14T07:52:41;71.90;42.62;81.49;;
18377;Laerm;9315;52.624;13.544;2023-12-14T07:55:09;71.28;41.94;80.78;;
18377;Laerm;9315;52.624;13.544;2023-12-14T07:57:36;73.30;41.77;83.33;;
18377;Laerm;9315;52.624;13.544;2023-12-14T08:00:05;71.98;42.29;82.64;;
18377;Laerm;9315;52.624;13.544;2023-12-14T08:02:35;69.70;42.96;79.43;;
18377;Laerm;9315;52.624;13.544;2023-12-14T08:05:05;71.30;44.62;82.66;;
18377;Laerm;9315;52.624;13.544;2023-12-14T08:07:33;72.93;52.38;82.37;;
18377;Laerm;9315;52.624;13.544;2023-12-14T08:10:04;73.07;44.33;82.27;;
18377;Laerm;9315;52.624;13.544;2023-12-14T08:12:32;71.81;49.45;79.62;;
18377;Laerm;9315;52.624;13.544;2023-12-14T08:15:00;71.53;43.80;82.15;;
18377;Laerm;9315;52.624;13.544;2023-12-14T08:17:27;71.94;49.06;82.65;;
18377;Laerm;9315;52.624;13.544;2023-12-14T08:19:55;73.26;53.29;81.45;;
18377;Laerm;9315;52.624;13.544;2023-12-14T08:22:23;70.36;45.22;82.98;;
18377;Laerm;9315;52.624;13.544;2023-12-14T08:24:50;71.29;47.05;79.35;;
18377;Laerm;9315;52.624;13.544;2023-12-14T08:27:17;73.87;51.75;89.04;;
18377;Laerm;9315;52.624;13.544;2023-12-14T08:29:45;72.46;48.89;82.13;;
18377;Laerm;9315;52.624;13.544;2023-12-14T08:32:13;74.23;53.62;85.26;;
18377;Laerm;9315;52.624;13.544;2023-12-14T08:34:40;71.44;46.36;80.48;;
18377;Laerm;9315;52.624;13.544;2023-12-14T08:37:08;71.77;47.55;82.56;;
18377;Laerm;9315;52.624;13.544;2023-12-14T08:39:37;71.41;44.04;81.28;;
18377;Laerm;9315;52.624;13.544;2023-12-14T08:42:05;71.32;46.04;79.18;;
18377;Laerm;9315;52.624;13.544;2023-12-14T08:44:32;70.51;43.33;78.45;;
18377;Laerm;9315;52.624;13.544;2023-12-14T08:47:01;71.81;46.71;79.29;;
18377;Laerm;9315;52.624;13.544;2023-12-14T08:49:31;72.48;51.82;82.66;;
18377;Laerm;9315;52.624;13.544;2023-12-14T08:51:58;71.56;48.49;81.13;;
18377;Laerm;9315;52.624;13.544;2023-12-14T08:54:26;70.85;44.30;79.37;;
18377;Laerm;9315;52.624;13.544;2023-12-14T08:56:53;71.66;44.78;78.20;;
18377;Laerm;9315;52.624;13.544;2023-12-14T08:59:20;71.49;47.53;79.00;;
18377;Laerm;9315;52.624;13.544;2023-12-14T09:01:48;71.05;42.14;81.04;;
18377;Laerm;9315;52.624;13.544;2023-12-14T09:04:16;71.88;45.10;83.02;;
18377;Laerm;9315;52.624;13.544;2023-12-14T09:06:43;71.31;48.60;79.39;;
18377;Laerm;9315;52.624;13.544;2023-12-14T09:09:12;71.41;54.93;82.91;;
18377;Laerm;9315;52.624;13.544;2023-12-14T09:11:40;72.95;46.15;83.17;;
18377;Laerm;9315;52.624;13.544;2023-12-14T09:14:07;70.00;47.73;77.77;;
18377;Laerm;9315;52.624;13.544;2023-12-14T09:16:35;70.82;43.18;80.51;;
18377;Laerm;9315;52.624;13.544;2023-12-14T09:19:04;70.93;42.41;82.07;;
18377;Laerm;9315;52.624;13.544;2023-12-14T09:21:31;72.50;43.86;79.80;;
18377;Laerm;9315;52.624;13.544;2023-12-14T09:24:10;70.20;45.09;81.58;;
18377;Laerm;9315;52.624;13.544;2023-12-14T09:26:40;70.17;45.46;77.60;;
18377;Laerm;9315;52.624;13.544;2023-12-14T09:29:08;71.05;52.72;77.87;;
18377;Laerm;9315;52.624;13.544;2023-12-14T09:31:36;70.83;46.64;78.91;;
18377;Laerm;9315;52.624;13.544;2023-12-14T09:34:04;69.89;46.30;77.38;;
18377;Laerm;9315;52.624;13.544;2023-12-14T09:36:32;72.02;46.37;84.33;;
18377;Laerm;9315;52.624;13.544;2023-12-14T09:38:59;72.14;48.28;79.95;;
18377;Laerm;9315;52.624;13.544;2023-12-14T09:41:33;71.14;47.18;78.74;;
18377;Laerm;9315;52.624;13.544;2023-12-14T09:44:00;70.58;48.35;80.83;;
18377;Laerm;9315;52.624;13.544;2023-12-14T09:46:31;70.84;44.41;80.49;;
18377;Laerm;9315;52.624;13.544;2023-12-14T09:49:00;71.43;50.06;82.17;;
18377;Laerm;9315;52.624;13.544;2023-12-14T09:51:31;70.27;48.34;78.23;;
18377;Laerm;9315;52.624;13.544;2023-12-14T09:53:59;69.79;43.66;79.28;;
18377;Laerm;9315;52.624;13.544;2023-12-14T09:56:27;68.51;46.67;79.70;;
18377;Laerm;9315;52.624;13.544;2023-12-14T09:58:54;71.51;45.98;86.36;;
18377;Laerm;9315;52.624;13.544;2023-12-14T10:01:27;69.33;43.81;78.61;;
18377;Laerm;9315;52.624;13.544;2023-12-14T10:04:16;70.95;47.45;79.76;;
18377;Laerm;9315;52.624;13.544;2023-12-14T10:06:47;72.27;50.62;86.18;;
18377;Laerm;9315;52.624;13.544;2023-12-14T10:09:15;80.81;49.31;103.23;;
18377;Laerm;9315;52.624;13.544;2023-12-14T10:11:45;72.62;57.52;81.30;;
18377;Laerm;9315;52.624;13.544;2023-12-14T10:14:23;69.81;42.82;78.54;;
18377;Laerm;9315;52.624;13.544;2023-12-14T10:16:53;70.79;50.79;79.72;;
18377;Laerm;9315;52.624;13.544;2023-12-14T10:19:29;70.29;47.04;78.65;;
18377;Laerm;9315;52.624;13.544;2023-12-14T10:21:57;70.68;49.57;80.03;;
18377;Laerm;9315;52.624;13.544;2023-12-14T10:24:25;71.64;47.10;80.26;;
18377;Laerm;9315;52.624;13.544;2023-12-14T10:26:53;71.99;43.25;80.11;;
18377;Laerm;9315;52.624;13.544;2023-12-14T10:29:21;71.98;49.94;81.01;;
18377;Laerm;9315;52.624;13.544;2023-12-14T10:31:49;70.63;49.20;79.00;;
18377;Laerm;9315;52.624;13.544;2023-12-14T10:34:16;71.21;49.32;78.37;;
18377;Laerm;9315;52.624;13.544;2023-12-14T10:36:46;70.55;49.11;77.94;;
18377;Laerm;9315;52.624;13.544;2023-12-14T10:39:15;69.59;43.22;77.18;;
18377;Laerm;9315;52.624;13.544;2023-12-14T10:41:47;71.45;41.17;82.29;;
18377;Laerm;9315;52.624;13.544;2023-12-14T10:44:27;68.78;42.93;78.00;;
18377;Laerm;9315;52.624;13.544;2023-12-14T10:46:58;69.57;42.43;78.38;;
18377;Laerm;9315;52.624;13.544;2023-12-14T10:49:28;70.92;43.98;78.76;;
18377;Laerm;9315;52.624;13.544;2023-12-14T10:51:58;72.42;51.34;80.97;;
18377;Laerm;9315;52.624;13.544;2023-12-14T10:54:27;69.59;40.49;77.77;;
18377;Laerm;9315;52.624;13.544;2023-12-14T10:56:56;70.33;42.26;81.78;;
18377;Laerm;9315;52.624;13.544;2023-12-14T10:59:24;69.22;47.45;79.10;;
18377;Laerm;9315;52.624;13.544;2023-12-14T11:01:54;70.17;43.22;78.58;;
18377;Laerm;9315;52.624;13.544;2023-12-14T11:04:22;69.58;42.49;82.62;;
18377;Laerm;9315;52.624;13.544;2023-12-14T11:06:54;68.86;42.78;79.77;;
18377;Laerm;9315;52.624;13.544;2023-12-14T11:09:23;71.70;46.84;90.38;;
18377;Laerm;9315;52.624;13.544;2023-12-14T11:14:20;71.08;47.29;82.13;;
18377;Laerm;9315;52.624;13.544;2023-12-14T11:16:54;71.47;40.95;83.50;;
18377;Laerm;9315;52.624;13.544;2023-12-14T11:24:24;78.69;42.28;100.53;;
18377;Laerm;9315;52.624;13.544;2023-12-14T11:26:54;70.35;42.61;79.10;;
18377;Laerm;9315;52.624;13.544;2023-12-14T11:29:22;71.91;45.38;80.88;;
18377;Laerm;9315;52.624;13.544;2023-12-14T11:31:50;70.50;40.84;86.71;;
18377;Laerm;9315;52.624;13.544;2023-12-14T11:34:17;69.87;39.72;78.25;;
18377;Laerm;9315;52.624;13.544;2023-12-14T11:36:49;69.67;46.81;78.38;;
18377;Laerm;9315;52.624;13.544;2023-12-14T11:39:16;71.28;52.43;80.60;;
18377;Laerm;9315;52.624;13.544;2023-12-14T11:42:02;69.37;43.25;77.21;;
18377;Laerm;9315;52.624;13.544;2023-12-14T11:44:31;68.75;41.60;77.85;;
18377;Laerm;9315;52.624;13.544;2023-12-14T11:46:58;68.92;43.14;75.57;;
18377;Laerm;9315;52.624;13.544;2023-12-14T11:49:26;70.60;50.31;76.75;;
18377;Laerm;9315;52.624;13.544;2023-12-14T11:52:01;69.90;47.62;78.43;;
18377;Laerm;9315;52.624;13.544;2023-12-14T11:54:29;70.62;46.46;80.36;;
18377;Laerm;9315;52.624;13.544;2023-12-14T11:56:56;69.74;41.90;81.01;;
18377;Laerm;9315;52.624;13.544;2023-12-14T11:59:24;69.09;44.20;79.02;;
18377;Laerm;9315;52.624;13.544;2023-12-14T12:02:01;71.19;51.87;77.44;;
18377;Laerm;9315;52.624;13.544;2023-12-14T12:04:28;69.58;43.61;81.50;;
18377;Laerm;9315;52.624;13.544;2023-12-14T12:07:05;70.59;48.35;77.43;;
18377;Laerm;9315;52.624;13.544;2023-12-14T12:09:45;67.98;45.60;75.61;;
18377;Laerm;9315;52.624;13.544;2023-12-14T12:12:14;70.65;54.42;77.23;;
18377;Laerm;9315;52.624;13.544;2023-12-14T12:14:42;69.82;48.07;81.72;;
18377;Laerm;9315;52.624;13.544;2023-12-14T12:17:10;69.97;49.43;81.29;;
18377;Laerm;9315;52.624;13.544;2023-12-14T12:19:38;71.03;45.94;80.41;;
18377;Laerm;9315;52.624;13.544;2023-12-14T12:22:05;70.31;45.70;80.87;;
18377;Laerm;9315;52.624;13.544;2023-12-14T12:24:33;71.39;42.66;83.02;;
18377;Laerm;9315;52.624;13.544;2023-12-14T12:27:01;69.91;48.51;77.93;;
18377;Laerm;9315;52.624;13.544;2023-12-14T12:29:29;69.59;46.65;77.71;;
18377;Laerm;9315;52.624;13.544;2023-12-14T12:31:56;69.62;42.14;77.36;;
18377;Laerm;9315;52.624;13.544;2023-12-14T12:34:24;69.78;43.92;79.49;;
18377;Laerm;9315;52.624;13.544;2023-12-14T12:36:51;70.29;42.81;81.86;;
18377;Laerm;9315;52.624;13.544;2023-12-14T12:39:19;70.52;45.12;80.04;;
18377;Laerm;9315;52.624;13.544;2023-12-14T12:41:46;70.40;41.17;80.64;;
18377;Laerm;9315;52.624;13.544;2023-12-14T12:44:13;69.35;47.15;77.02;;
18377;Laerm;9315;52.624;13.544;2023-12-14T12:46:41;69.66;44.60;78.30;;
18377;Laerm;9315;52.624;13.544;2023-12-14T12:49:11;70.07;49.49;77.51;;
18377;Laerm;9315;52.624;13.544;2023-12-14T12:51:39;70.24;49.86;79.91;;
18377;Laerm;9315;52.624;13.544;2023-12-14T12:54:07;71.00;46.38;80.33;;
18377;Laerm;9315;52.624;13.544;2023-12-14T12:56:39;70.07;42.82;79.10;;
18377;Laerm;9315;52.624;13.544;2023-12-14T12:59:07;76.27;45.48;99.59;;
18377;Laerm;9315;52.624;13.544;2023-12-14T13:01:36;71.64;45.23;81.35;;
18377;Laerm;9315;52.624;13.544;2023-12-14T13:04:04;71.26;52.26;83.27;;
18377;Laerm;9315;52.624;13.544;2023-12-14T13:06:32;69.56;41.14;77.28;;
18377;Laerm;9315;52.624;13.544;2023-12-14T13:08:59;70.05;48.34;79.27;;
18377;Laerm;9315;52.624;13.544;2023-12-14T13:11:26;69.39;47.05;78.73;;
18377;Laerm;9315;52.624;13.544;2023-12-14T13:13:54;70.00;43.56;79.09;;
18377;Laerm;9315;52.624;13.544;2023-12-14T13:16:22;70.61;47.43;83.07;;
18377;Laerm;9315;52.624;13.544;2023-12-14T13:18:49;70.82;43.47;81.53;;
18377;Laerm;9315;52.624;13.544;2023-12-14T13:21:17;71.10;48.44;81.15;;
18377;Laerm;9315;52.624;13.544;2023-12-14T13:23:44;71.10;44.49;78.94;;
18377;Laerm;9315;52.624;13.544;2023-12-14T13:26:12;70.48;48.49;77.98;;
18377;Laerm;9315;52.624;13.544;2023-12-14T13:28:39;70.82;45.86;79.09;;
18377;Laerm;9315;52.624;13.544;2023-12-14T13:31:07;70.24;50.31;81.44;;
18377;Laerm;9315;52.624;13.544;2023-12-14T13:33:34;71.39;51.85;78.19;;
18377;Laerm;9315;52.624;13.544;2023-12-14T13:36:02;71.12;47.80;83.48;;
18377;Laerm;9315;52.624;13.544;2023-12-14T13:38:31;70.07;49.69;79.15;;
18377;Laerm;9315;52.624;13.544;2023-12-14T13:41:00;70.33;52.83;83.01;;
18377;Laerm;9315;52.624;13.544;2023-12-14T13:43:29;86.94;51.84;109.35;;
18377;Laerm;9315;52.624;13.544;2023-12-14T13:45:56;70.76;47.95;80.06;;
18377;Laerm;9315;52.624;13.544;2023-12-14T13:48:44;71.36;53.76;79.43;;
18377;Laerm;9315;52.624;13.544;2023-12-14T13:51:12;70.32;44.27;79.72;;
18377;Laerm;9315;52.624;13.544;2023-12-14T13:53:39;72.27;51.17;83.12;;
18377;Laerm;9315;52.624;13.544;2023-12-14T13:56:07;71.37;58.04;81.38;;
18377;Laerm;9315;52.624;13.544;2023-12-14T13:58:35;70.39;45.17;81.03;;